KLUK

Cincinnati Municipal Lunken Field Airport

Cincinnati, Ohio, USA
METAR KLUK 191053Z AUTO 00000KT 7SM CLR M03/M03 A3009 RMK AO2 SLP193 T10281033
Observed Flight Rules
Dec-19 @ 10:53 UTC (52 minutes ago) Visual Flight Rules
Visibility Clouds
7 miles
  • Clear skies
Temperatures Readings
Current -3°C / 27°F
Dewpoint -3°C / 27°F
Humidity 100%
Altimeter 30.09" Hg
Pressure 1019.3 hPa
Elevation 155
METAR KLUK 191053Z AUTO 00000KT 7SM CLR M03/M03 A3009 RMK AO2 SLP193 T10281033
Observed Flight Rules
Dec-19 @ 10:53 UTC
(52 minutes ago)
VFR
Clouds
  • Clear skies
Temperature Dewpoint
-3°C / 27°F -3°C / 27°F
Humidity Altimeter Pressure
100% 30.09" Hg 1019.3 hPa